This is the latest recevied weather packets stored in our database for station/object SQ7ACP-3. If no packets are shown the sender has not sent any weather packets the latest 10 day(s).
| Time | Temp. | Humidity | Pressure | Rain* | Wind** | Luminosity | Snow |
|---|---|---|---|---|---|---|---|
| 1777563035 | 11.67° C | 32% | 1027 hPa | 0 mm | - | - | - |
| 1777562436 | 12.22° C | 30% | 1027.1 hPa | 0 mm | - | - | - |
| 1777561823 | 12.78° C | 29% | 1027 hPa | 0 mm | - | - | - |
| 1777561223 | 12.22° C | 30% | 1027 hPa | 0 mm | - | - | - |
| 1777560611 | 11.67° C | 29% | 1027.1 hPa | 0 mm | - | - | - |
| 1777560011 | 12.22° C | 27% | 1027.2 hPa | 0 mm | - | - | - |
| 1777559398 | 12.22° C | 27% | 1027.4 hPa | 0 mm | - | - | - |
| 1777558785 | 12.22° C | 27% | 1027.3 hPa | 0 mm | - | - | - |
| 1777558173 | 12.22° C | 26% | 1027.3 hPa | 0 mm | - | - | - |
| 1777557561 | 12.22° C | 26% | 1027.4 hPa | 0 mm | - | - | - |
| 1777556948 | 12.22° C | 26% | 1027.5 hPa | 0 mm | - | - | - |
| 1777556336 | 12.22° C | 25% | 1027.6 hPa | 0 mm | - | - | - |
| 1777555735 | 12.22° C | 23% | 1027.6 hPa | 0 mm | - | - | - |
| 1777555123 | 12.78° C | 23% | 1027.7 hPa | 0 mm | - | - | - |
| 1777554523 | 12.22° C | 23% | 1027.8 hPa | 0 mm | - | - | - |
| 1777553912 | 13.33° C | 22% | 1027.9 hPa | 0 mm | - | - | - |
| 1777553298 | 12.78° C | 24% | 1028.2 hPa | 0 mm | - | - | - |
| 1777552688 | 12.22° C | 25% | 1028.1 hPa | 0 mm | - | - | - |
| 1777552088 | 12.22° C | 24% | 1028.2 hPa | 0 mm | - | - | - |
| 1777550885 | 11.67° C | 28% | 1028.4 hPa | 0 mm | - | - | - |
| 1777550276 | 12.22° C | 24% | 1028.3 hPa | 0 mm | - | - | - |
| 1777549661 | 12.22° C | 25% | 1028.3 hPa | 0 mm | - | - | - |
| 1777549061 | 12.22° C | 26% | 1028.4 hPa | 0 mm | - | - | - |
| 1777548448 | 11.67° C | 30% | 1028.6 hPa | 0 mm | - | - | - |
| 1777547848 | 12.22° C | 27% | 1028.6 hPa | 0 mm | - | - | - |
* Rain latest hour (hover to see other rain measurements)
** Current wind speed in m/s (hover to see current wind gust speed)